sensor_id;sensor_type;location;lat;lon;timestamp;P1;durP1;ratioP1;P2;durP2;ratioP2
75342;SDS011;63936;51.006;13.764;2023-01-16T00:00:02;5;;;2;;
75342;SDS011;63936;51.006;13.764;2023-01-16T00:02:01;5;;;1;;
75342;SDS011;63936;51.006;13.764;2023-01-16T00:04:01;6;;;1;;
75342;SDS011;63936;51.006;13.764;2023-01-16T00:06:01;5;;;1;;
75342;SDS011;63936;51.006;13.764;2023-01-16T00:08:01;4;;;1;;
75342;SDS011;63936;51.006;13.764;2023-01-16T00:10:02;4;;;1;;
75342;SDS011;63936;51.006;13.764;2023-01-16T00:12:02;4;;;1;;
75342;SDS011;63936;51.006;13.764;2023-01-16T00:14:01;4;;;1;;
75342;SDS011;63936;51.006;13.764;2023-01-16T00:16:01;4;;;1;;
75342;SDS011;63936;51.006;13.764;2023-01-16T00:18:01;5;;;2;;
75342;SDS011;63936;51.006;13.764;2023-01-16T00:20:01;5;;;2;;
75342;SDS011;63936;51.006;13.764;2023-01-16T00:22:01;5;;;2;;
75342;SDS011;63936;51.006;13.764;2023-01-16T00:24:01;5;;;2;;
75342;SDS011;63936;51.006;13.764;2023-01-16T00:26:03;4;;;2;;
75342;SDS011;63936;51.006;13.764;2023-01-16T00:28:01;4;;;2;;
75342;SDS011;63936;51.006;13.764;2023-01-16T00:30:02;6;;;2;;
75342;SDS011;63936;51.006;13.764;2023-01-16T00:32:01;6;;;2;;
75342;SDS011;63936;51.006;13.764;2023-01-16T00:34:01;5;;;2;;
75342;SDS011;63936;51.006;13.764;2023-01-16T00:36:01;5;;;2;;
75342;SDS011;63936;51.006;13.764;2023-01-16T00:38:01;5;;;2;;
75342;SDS011;63936;51.006;13.764;2023-01-16T00:40:02;8;;;2;;
75342;SDS011;63936;51.006;13.764;2023-01-16T00:42:02;6;;;2;;
75342;SDS011;63936;51.006;13.764;2023-01-16T00:44:02;6;;;2;;
75342;SDS011;63936;51.006;13.764;2023-01-16T00:46:01;6;;;2;;
75342;SDS011;63936;51.006;13.764;2023-01-16T00:48:01;6;;;3;;
75342;SDS011;63936;51.006;13.764;2023-01-16T00:50:01;5;;;2;;
75342;SDS011;63936;51.006;13.764;2023-01-16T00:52:01;5;;;2;;
75342;SDS011;63936;51.006;13.764;2023-01-16T00:54:01;7;;;2;;
75342;SDS011;63936;51.006;13.764;2023-01-16T00:56:01;6;;;2;;
75342;SDS011;63936;51.006;13.764;2023-01-16T00:58:01;5;;;2;;
75342;SDS011;63936;51.006;13.764;2023-01-16T01:00:02;5;;;2;;
75342;SDS011;63936;51.006;13.764;2023-01-16T01:02:03;6;;;2;;
75342;SDS011;63936;51.006;13.764;2023-01-16T01:04:04;6;;;2;;
75342;SDS011;63936;51.006;13.764;2023-01-16T01:06:04;4;;;1;;
75342;SDS011;63936;51.006;13.764;2023-01-16T01:08:04;4;;;1;;
75342;SDS011;63936;51.006;13.764;2023-01-16T01:10:04;5;;;2;;
75342;SDS011;63936;51.006;13.764;2023-01-16T01:12:01;5;;;2;;
75342;SDS011;63936;51.006;13.764;2023-01-16T01:14:01;5;;;2;;
75342;SDS011;63936;51.006;13.764;2023-01-16T01:16:01;5;;;2;;
75342;SDS011;63936;51.006;13.764;2023-01-16T01:18:02;4;;;2;;
75342;SDS011;63936;51.006;13.764;2023-01-16T01:20:09;4;;;2;;
75342;SDS011;63936;51.006;13.764;2023-01-16T01:22:01;5;;;2;;
75342;SDS011;63936;51.006;13.764;2023-01-16T01:24:01;5;;;2;;
75342;SDS011;63936;51.006;13.764;2023-01-16T01:26:05;4;;;2;;
75342;SDS011;63936;51.006;13.764;2023-01-16T01:28:01;4;;;2;;
75342;SDS011;63936;51.006;13.764;2023-01-16T01:30:04;5;;;2;;
75342;SDS011;63936;51.006;13.764;2023-01-16T01:32:04;5;;;2;;
75342;SDS011;63936;51.006;13.764;2023-01-16T01:34:02;7;;;2;;
75342;SDS011;63936;51.006;13.764;2023-01-16T01:36:02;6;;;2;;
75342;SDS011;63936;51.006;13.764;2023-01-16T01:38:02;6;;;2;;
75342;SDS011;63936;51.006;13.764;2023-01-16T01:40:06;6;;;2;;
75342;SDS011;63936;51.006;13.764;2023-01-16T01:42:02;6;;;2;;
75342;SDS011;63936;51.006;13.764;2023-01-16T01:44:39;6;;;2;;
75342;SDS011;63936;51.006;13.764;2023-01-16T01:46:03;6;;;2;;
75342;SDS011;63936;51.006;13.764;2023-01-16T01:48:04;5;;;2;;
75342;SDS011;63936;51.006;13.764;2023-01-16T01:50:08;5;;;2;;
75342;SDS011;63936;51.006;13.764;2023-01-16T01:52:02;8;;;4;;
75342;SDS011;63936;51.006;13.764;2023-01-16T01:54:02;9;;;4;;
75342;SDS011;63936;51.006;13.764;2023-01-16T01:56:02;8;;;3;;
75342;SDS011;63936;51.006;13.764;2023-01-16T01:58:01;6;;;2;;
75342;SDS011;63936;51.006;13.764;2023-01-16T02:00:04;5;;;2;;
75342;SDS011;63936;51.006;13.764;2023-01-16T02:02:02;4;;;2;;
75342;SDS011;63936;51.006;13.764;2023-01-16T02:04:02;4;;;2;;
75342;SDS011;63936;51.006;13.764;2023-01-16T02:06:02;4;;;2;;
75342;SDS011;63936;51.006;13.764;2023-01-16T02:08:01;6;;;2;;
75342;SDS011;63936;51.006;13.764;2023-01-16T02:10:04;4;;;1;;
75342;SDS011;63936;51.006;13.764;2023-01-16T02:12:02;4;;;1;;
75342;SDS011;63936;51.006;13.764;2023-01-16T02:14:02;5;;;1;;
75342;SDS011;63936;51.006;13.764;2023-01-16T02:16:01;3;;;1;;
75342;SDS011;63936;51.006;13.764;2023-01-16T02:18:01;4;;;2;;
75342;SDS011;63936;51.006;13.764;2023-01-16T02:20:08;5;;;1;;
75342;SDS011;63936;51.006;13.764;2023-01-16T02:22:11;5;;;1;;
75342;SDS011;63936;51.006;13.764;2023-01-16T02:24:10;4;;;1;;
75342;SDS011;63936;51.006;13.764;2023-01-16T02:26:06;4;;;1;;
75342;SDS011;63936;51.006;13.764;2023-01-16T02:28:07;6;;;2;;
75342;SDS011;63936;51.006;13.764;2023-01-16T02:30:06;7;;;2;;
75342;SDS011;63936;51.006;13.764;2023-01-16T02:32:03;5;;;1;;
75342;SDS011;63936;51.006;13.764;2023-01-16T02:34:06;5;;;1;;
75342;SDS011;63936;51.006;13.764;2023-01-16T02:36:03;5;;;2;;
75342;SDS011;63936;51.006;13.764;2023-01-16T02:38:03;5;;;2;;
75342;SDS011;63936;51.006;13.764;2023-01-16T02:40:04;4;;;1;;
75342;SDS011;63936;51.006;13.764;2023-01-16T02:42:03;4;;;2;;
75342;SDS011;63936;51.006;13.764;2023-01-16T02:44:03;4;;;2;;
75342;SDS011;63936;51.006;13.764;2023-01-16T02:46:05;4;;;1;;
75342;SDS011;63936;51.006;13.764;2023-01-16T02:48:03;4;;;1;;
75342;SDS011;63936;51.006;13.764;2023-01-16T02:50:02;7;;;1;;
75342;SDS011;63936;51.006;13.764;2023-01-16T02:52:03;7;;;1;;
75342;SDS011;63936;51.006;13.764;2023-01-16T02:54:03;4;;;1;;
75342;SDS011;63936;51.006;13.764;2023-01-16T02:56:02;4;;;1;;
75342;SDS011;63936;51.006;13.764;2023-01-16T02:58:02;4;;;1;;
75342;SDS011;63936;51.006;13.764;2023-01-16T03:00:02;4;;;1;;
75342;SDS011;63936;51.006;13.764;2023-01-16T03:02:02;4;;;1;;
75342;SDS011;63936;51.006;13.764;2023-01-16T03:04:03;4;;;1;;
75342;SDS011;63936;51.006;13.764;2023-01-16T03:06:03;4;;;1;;
75342;SDS011;63936;51.006;13.764;2023-01-16T03:08:08;6;;;2;;
75342;SDS011;63936;51.006;13.764;2023-01-16T03:10:05;7;;;2;;
75342;SDS011;63936;51.006;13.764;2023-01-16T03:12:06;5;;;1;;
75342;SDS011;63936;51.006;13.764;2023-01-16T03:14:05;5;;;2;;
75342;SDS011;63936;51.006;13.764;2023-01-16T03:16:04;4;;;2;;
75342;SDS011;63936;51.006;13.764;2023-01-16T03:18:04;6;;;2;;
75342;SDS011;63936;51.006;13.764;2023-01-16T03:20:06;5;;;2;;
75342;SDS011;63936;51.006;13.764;2023-01-16T03:22:05;5;;;2;;
75342;SDS011;63936;51.006;13.764;2023-01-16T03:24:03;5;;;2;;
75342;SDS011;63936;51.006;13.764;2023-01-16T03:26:02;6;;;2;;
75342;SDS011;63936;51.006;13.764;2023-01-16T03:28:04;5;;;2;;
75342;SDS011;63936;51.006;13.764;2023-01-16T03:30:05;7;;;2;;
75342;SDS011;63936;51.006;13.764;2023-01-16T03:32:03;5;;;2;;
75342;SDS011;63936;51.006;13.764;2023-01-16T03:34:03;4;;;1;;
75342;SDS011;63936;51.006;13.764;2023-01-16T03:36:01;4;;;1;;
75342;SDS011;63936;51.006;13.764;2023-01-16T03:38:01;5;;;2;;
75342;SDS011;63936;51.006;13.764;2023-01-16T03:40:02;6;;;2;;
75342;SDS011;63936;51.006;13.764;2023-01-16T03:42:03;5;;;2;;
75342;SDS011;63936;51.006;13.764;2023-01-16T03:44:03;5;;;2;;
75342;SDS011;63936;51.006;13.764;2023-01-16T03:46:03;6;;;2;;
75342;SDS011;63936;51.006;13.764;2023-01-16T03:48:02;6;;;2;;
75342;SDS011;63936;51.006;13.764;2023-01-16T03:50:02;6;;;2;;
75342;SDS011;63936;51.006;13.764;2023-01-16T03:52:02;6;;;2;;
75342;SDS011;63936;51.006;13.764;2023-01-16T03:54:03;6;;;2;;
75342;SDS011;63936;51.006;13.764;2023-01-16T03:56:04;4;;;1;;
75342;SDS011;63936;51.006;13.764;2023-01-16T03:58:03;4;;;1;;
75342;SDS011;63936;51.006;13.764;2023-01-16T04:00:03;5;;;2;;
75342;SDS011;63936;51.006;13.764;2023-01-16T04:02:02;5;;;2;;
75342;SDS011;63936;51.006;13.764;2023-01-16T04:04:03;6;;;3;;
75342;SDS011;63936;51.006;13.764;2023-01-16T04:06:03;7;;;2;;
75342;SDS011;63936;51.006;13.764;2023-01-16T04:08:03;5;;;2;;
75342;SDS011;63936;51.006;13.764;2023-01-16T04:10:04;5;;;2;;
75342;SDS011;63936;51.006;13.764;2023-01-16T04:12:01;5;;;2;;
75342;SDS011;63936;51.006;13.764;2023-01-16T04:14:01;5;;;2;;
75342;SDS011;63936;51.006;13.764;2023-01-16T04:16:02;6;;;3;;
75342;SDS011;63936;51.006;13.764;2023-01-16T04:18:01;5;;;2;;
75342;SDS011;63936;51.006;13.764;2023-01-16T04:20:02;6;;;2;;
75342;SDS011;63936;51.006;13.764;2023-01-16T04:22:04;6;;;2;;
75342;SDS011;63936;51.006;13.764;2023-01-16T04:24:01;6;;;2;;
75342;SDS011;63936;51.006;13.764;2023-01-16T04:26:01;6;;;2;;
75342;SDS011;63936;51.006;13.764;2023-01-16T04:28:01;5;;;2;;
75342;SDS011;63936;51.006;13.764;2023-01-16T04:30:02;5;;;2;;
75342;SDS011;63936;51.006;13.764;2023-01-16T04:32:02;5;;;2;;
75342;SDS011;63936;51.006;13.764;2023-01-16T04:34:02;5;;;2;;
75342;SDS011;63936;51.006;13.764;2023-01-16T04:36:02;5;;;2;;
75342;SDS011;63936;51.006;13.764;2023-01-16T04:38:02;5;;;2;;
75342;SDS011;63936;51.006;13.764;2023-01-16T04:40:02;5;;;2;;
75342;SDS011;63936;51.006;13.764;2023-01-16T04:42:01;5;;;2;;
75342;SDS011;63936;51.006;13.764;2023-01-16T04:44:01;5;;;2;;
75342;SDS011;63936;51.006;13.764;2023-01-16T04:46:01;5;;;2;;
75342;SDS011;63936;51.006;13.764;2023-01-16T04:48:01;5;;;2;;
75342;SDS011;63936;51.006;13.764;2023-01-16T04:50:01;5;;;2;;
75342;SDS011;63936;51.006;13.764;2023-01-16T04:52:02;6;;;2;;
75342;SDS011;63936;51.006;13.764;2023-01-16T04:54:02;5;;;2;;
75342;SDS011;63936;51.006;13.764;2023-01-16T04:56:01;5;;;2;;
75342;SDS011;63936;51.006;13.764;2023-01-16T04:58:01;5;;;2;;
75342;SDS011;63936;51.006;13.764;2023-01-16T05:00:02;5;;;2;;
75342;SDS011;63936;51.006;13.764;2023-01-16T05:02:01;5;;;2;;
75342;SDS011;63936;51.006;13.764;2023-01-16T05:04:02;5;;;2;;
75342;SDS011;63936;51.006;13.764;2023-01-16T05:06:02;6;;;2;;
75342;SDS011;63936;51.006;13.764;2023-01-16T05:08:02;5;;;2;;
75342;SDS011;63936;51.006;13.764;2023-01-16T05:10:01;5;;;3;;
75342;SDS011;63936;51.006;13.764;2023-01-16T05:12:01;6;;;2;;
75342;SDS011;63936;51.006;13.764;2023-01-16T05:14:01;5;;;2;;
75342;SDS011;63936;51.006;13.764;2023-01-16T05:16:01;5;;;2;;
75342;SDS011;63936;51.006;13.764;2023-01-16T05:18:01;6;;;3;;
75342;SDS011;63936;51.006;13.764;2023-01-16T05:20:01;5;;;2;;
75342;SDS011;63936;51.006;13.764;2023-01-16T05:22:01;5;;;2;;
75342;SDS011;63936;51.006;13.764;2023-01-16T05:24:01;5;;;2;;
75342;SDS011;63936;51.006;13.764;2023-01-16T05:26:01;5;;;2;;
75342;SDS011;63936;51.006;13.764;2023-01-16T05:28:01;5;;;2;;
75342;SDS011;63936;51.006;13.764;2023-01-16T05:30:02;5;;;2;;
75342;SDS011;63936;51.006;13.764;2023-01-16T05:32:01;7;;;2;;
75342;SDS011;63936;51.006;13.764;2023-01-16T05:34:01;6;;;2;;
75342;SDS011;63936;51.006;13.764;2023-01-16T05:36:02;5;;;2;;
75342;SDS011;63936;51.006;13.764;2023-01-16T05:38:02;5;;;2;;
75342;SDS011;63936;51.006;13.764;2023-01-16T05:40:02;5;;;2;;
75342;SDS011;63936;51.006;13.764;2023-01-16T05:42:01;5;;;2;;
75342;SDS011;63936;51.006;13.764;2023-01-16T05:44:01;5;;;2;;
75342;SDS011;63936;51.006;13.764;2023-01-16T05:46:01;5;;;2;;
75342;SDS011;63936;51.006;13.764;2023-01-16T05:48:01;5;;;2;;
75342;SDS011;63936;51.006;13.764;2023-01-16T05:50:01;4;;;2;;
75342;SDS011;63936;51.006;13.764;2023-01-16T05:52:01;4;;;2;;
75342;SDS011;63936;51.006;13.764;2023-01-16T05:54:01;5;;;2;;
75342;SDS011;63936;51.006;13.764;2023-01-16T05:56:06;4;;;2;;
75342;SDS011;63936;51.006;13.764;2023-01-16T05:58:01;5;;;2;;
75342;SDS011;63936;51.006;13.764;2023-01-16T06:00:02;5;;;2;;
75342;SDS011;63936;51.006;13.764;2023-01-16T06:02:01;6;;;2;;
75342;SDS011;63936;51.006;13.764;2023-01-16T06:04:01;6;;;2;;
75342;SDS011;63936;51.006;13.764;2023-01-16T06:06:01;5;;;2;;
75342;SDS011;63936;51.006;13.764;2023-01-16T06:08:02;4;;;1;;
75342;SDS011;63936;51.006;13.764;2023-01-16T06:10:02;4;;;1;;
75342;SDS011;63936;51.006;13.764;2023-01-16T06:12:02;5;;;2;;
75342;SDS011;63936;51.006;13.764;2023-01-16T06:14:02;6;;;3;;
75342;SDS011;63936;51.006;13.764;2023-01-16T06:16:01;7;;;2;;
75342;SDS011;63936;51.006;13.764;2023-01-16T06:18:01;4;;;2;;
75342;SDS011;63936;51.006;13.764;2023-01-16T06:20:01;5;;;2;;
75342;SDS011;63936;51.006;13.764;2023-01-16T06:22:01;4;;;2;;
75342;SDS011;63936;51.006;13.764;2023-01-16T06:24:01;4;;;2;;
75342;SDS011;63936;51.006;13.764;2023-01-16T06:26:01;4;;;1;;
75342;SDS011;63936;51.006;13.764;2023-01-16T06:28:01;4;;;1;;
75342;SDS011;63936;51.006;13.764;2023-01-16T06:30:01;4;;;2;;
75342;SDS011;63936;51.006;13.764;2023-01-16T06:32:02;4;;;1;;
75342;SDS011;63936;51.006;13.764;2023-01-16T06:34:02;4;;;2;;
75342;SDS011;63936;51.006;13.764;2023-01-16T06:36:03;4;;;2;;
75342;SDS011;63936;51.006;13.764;2023-01-16T06:38:03;5;;;2;;
75342;SDS011;63936;51.006;13.764;2023-01-16T06:40:05;5;;;2;;
75342;SDS011;63936;51.006;13.764;2023-01-16T06:42:02;5;;;2;;
75342;SDS011;63936;51.006;13.764;2023-01-16T06:44:03;5;;;1;;
75342;SDS011;63936;51.006;13.764;2023-01-16T06:46:02;4;;;1;;
75342;SDS011;63936;51.006;13.764;2023-01-16T06:48:03;4;;;2;;
75342;SDS011;63936;51.006;13.764;2023-01-16T06:50:04;4;;;1;;
75342;SDS011;63936;51.006;13.764;2023-01-16T06:52:03;4;;;1;;
75342;SDS011;63936;51.006;13.764;2023-01-16T06:54:02;4;;;1;;
75342;SDS011;63936;51.006;13.764;2023-01-16T06:56:02;4;;;2;;
75342;SDS011;63936;51.006;13.764;2023-01-16T06:58:02;4;;;2;;
75342;SDS011;63936;51.006;13.764;2023-01-16T07:00:04;4;;;1;;
75342;SDS011;63936;51.006;13.764;2023-01-16T07:02:02;4;;;1;;
75342;SDS011;63936;51.006;13.764;2023-01-16T07:04:02;4;;;1;;
75342;SDS011;63936;51.006;13.764;2023-01-16T07:06:01;4;;;2;;
75342;SDS011;63936;51.006;13.764;2023-01-16T07:08:02;5;;;2;;
75342;SDS011;63936;51.006;13.764;2023-01-16T07:10:03;4;;;1;;
75342;SDS011;63936;51.006;13.764;2023-01-16T07:12:01;4;;;1;;
75342;SDS011;63936;51.006;13.764;2023-01-16T07:14:01;4;;;2;;
75342;SDS011;63936;51.006;13.764;2023-01-16T07:16:02;5;;;2;;
75342;SDS011;63936;51.006;13.764;2023-01-16T07:18:02;5;;;2;;
75342;SDS011;63936;51.006;13.764;2023-01-16T07:20:05;5;;;2;;
75342;SDS011;63936;51.006;13.764;2023-01-16T07:22:01;5;;;2;;
75342;SDS011;63936;51.006;13.764;2023-01-16T07:24:02;5;;;2;;
75342;SDS011;63936;51.006;13.764;2023-01-16T07:26:02;4;;;2;;
75342;SDS011;63936;51.006;13.764;2023-01-16T07:28:01;5;;;2;;
75342;SDS011;63936;51.006;13.764;2023-01-16T07:30:05;4;;;2;;
75342;SDS011;63936;51.006;13.764;2023-01-16T07:32:02;4;;;2;;
75342;SDS011;63936;51.006;13.764;2023-01-16T07:34:01;4;;;1;;
75342;SDS011;63936;51.006;13.764;2023-01-16T07:36:02;4;;;1;;
75342;SDS011;63936;51.006;13.764;2023-01-16T07:38:03;5;;;2;;
75342;SDS011;63936;51.006;13.764;2023-01-16T07:40:05;5;;;2;;
75342;SDS011;63936;51.006;13.764;2023-01-16T07:42:02;5;;;2;;
75342;SDS011;63936;51.006;13.764;2023-01-16T07:44:02;5;;;1;;
75342;SDS011;63936;51.006;13.764;2023-01-16T07:46:02;4;;;1;;
75342;SDS011;63936;51.006;13.764;2023-01-16T07:48:02;4;;;2;;
75342;SDS011;63936;51.006;13.764;2023-01-16T07:50:04;5;;;2;;
75342;SDS011;63936;51.006;13.764;2023-01-16T07:52:02;5;;;2;;
75342;SDS011;63936;51.006;13.764;2023-01-16T07:54:02;6;;;2;;
75342;SDS011;63936;51.006;13.764;2023-01-16T07:56:01;6;;;2;;
75342;SDS011;63936;51.006;13.764;2023-01-16T07:58:01;5;;;2;;
75342;SDS011;63936;51.006;13.764;2023-01-16T08:00:05;5;;;2;;
75342;SDS011;63936;51.006;13.764;2023-01-16T08:02:01;5;;;2;;
75342;SDS011;63936;51.006;13.764;2023-01-16T08:04:01;5;;;2;;
75342;SDS011;63936;51.006;13.764;2023-01-16T08:06:01;4;;;2;;
75342;SDS011;63936;51.006;13.764;2023-01-16T08:08:01;4;;;2;;
75342;SDS011;63936;51.006;13.764;2023-01-16T08:10:04;5;;;2;;
75342;SDS011;63936;51.006;13.764;2023-01-16T08:12:02;5;;;2;;
75342;SDS011;63936;51.006;13.764;2023-01-16T08:14:02;5;;;2;;
75342;SDS011;63936;51.006;13.764;2023-01-16T08:16:02;6;;;2;;
75342;SDS011;63936;51.006;13.764;2023-01-16T08:18:02;6;;;2;;
75342;SDS011;63936;51.006;13.764;2023-01-16T08:20:05;5;;;2;;
75342;SDS011;63936;51.006;13.764;2023-01-16T08:22:01;5;;;2;;
75342;SDS011;63936;51.006;13.764;2023-01-16T08:24:01;5;;;2;;
75342;SDS011;63936;51.006;13.764;2023-01-16T08:26:01;5;;;2;;
75342;SDS011;63936;51.006;13.764;2023-01-16T08:28:01;4;;;2;;
75342;SDS011;63936;51.006;13.764;2023-01-16T08:30:04;4;;;2;;
75342;SDS011;63936;51.006;13.764;2023-01-16T08:32:02;4;;;2;;
75342;SDS011;63936;51.006;13.764;2023-01-16T08:34:01;5;;;2;;
75342;SDS011;63936;51.006;13.764;2023-01-16T08:36:02;4;;;2;;
75342;SDS011;63936;51.006;13.764;2023-01-16T08:38:02;4;;;2;;
75342;SDS011;63936;51.006;13.764;2023-01-16T08:40:03;4;;;2;;
75342;SDS011;63936;51.006;13.764;2023-01-16T08:42:02;5;;;2;;
75342;SDS011;63936;51.006;13.764;2023-01-16T08:44:02;5;;;2;;
75342;SDS011;63936;51.006;13.764;2023-01-16T08:46:01;5;;;2;;
75342;SDS011;63936;51.006;13.764;2023-01-16T08:48:01;6;;;2;;
75342;SDS011;63936;51.006;13.764;2023-01-16T08:50:04;5;;;2;;
75342;SDS011;63936;51.006;13.764;2023-01-16T08:52:01;6;;;3;;
75342;SDS011;63936;51.006;13.764;2023-01-16T08:54:02;5;;;2;;
75342;SDS011;63936;51.006;13.764;2023-01-16T08:56:02;5;;;2;;
75342;SDS011;63936;51.006;13.764;2023-01-16T08:58:02;5;;;2;;
75342;SDS011;63936;51.006;13.764;2023-01-16T09:00:05;6;;;2;;
75342;SDS011;63936;51.006;13.764;2023-01-16T09:02:02;5;;;2;;
75342;SDS011;63936;51.006;13.764;2023-01-16T09:04:02;5;;;2;;
75342;SDS011;63936;51.006;13.764;2023-01-16T09:06:01;4;;;2;;
75342;SDS011;63936;51.006;13.764;2023-01-16T09:08:01;5;;;2;;
75342;SDS011;63936;51.006;13.764;2023-01-16T09:10:04;5;;;2;;
75342;SDS011;63936;51.006;13.764;2023-01-16T09:12:02;5;;;2;;
75342;SDS011;63936;51.006;13.764;2023-01-16T09:14:02;5;;;2;;
75342;SDS011;63936;51.006;13.764;2023-01-16T09:16:01;5;;;2;;
75342;SDS011;63936;51.006;13.764;2023-01-16T09:18:01;7;;;3;;
75342;SDS011;63936;51.006;13.764;2023-01-16T09:20:03;6;;;3;;
75342;SDS011;63936;51.006;13.764;2023-01-16T09:22:03;5;;;2;;
75342;SDS011;63936;51.006;13.764;2023-01-16T09:24:01;5;;;2;;
75342;SDS011;63936;51.006;13.764;2023-01-16T09:26:01;5;;;2;;
75342;SDS011;63936;51.006;13.764;2023-01-16T09:28:01;5;;;2;;
75342;SDS011;63936;51.006;13.764;2023-01-16T09:30:05;6;;;2;;
75342;SDS011;63936;51.006;13.764;2023-01-16T09:32:01;5;;;2;;
75342;SDS011;63936;51.006;13.764;2023-01-16T09:34:01;5;;;2;;
75342;SDS011;63936;51.006;13.764;2023-01-16T09:36:02;5;;;2;;
75342;SDS011;63936;51.006;13.764;2023-01-16T09:38:02;6;;;2;;
75342;SDS011;63936;51.006;13.764;2023-01-16T09:40:04;6;;;2;;
75342;SDS011;63936;51.006;13.764;2023-01-16T09:42:06;6;;;2;;
75342;SDS011;63936;51.006;13.764;2023-01-16T09:44:02;5;;;2;;
75342;SDS011;63936;51.006;13.764;2023-01-16T09:46:03;5;;;2;;
75342;SDS011;63936;51.006;13.764;2023-01-16T09:48:02;5;;;2;;
75342;SDS011;63936;51.006;13.764;2023-01-16T09:50:06;5;;;2;;
75342;SDS011;63936;51.006;13.764;2023-01-16T09:52:02;6;;;2;;
75342;SDS011;63936;51.006;13.764;2023-01-16T09:54:03;6;;;2;;
75342;SDS011;63936;51.006;13.764;2023-01-16T09:56:01;6;;;2;;
75342;SDS011;63936;51.006;13.764;2023-01-16T09:58:02;6;;;2;;
75342;SDS011;63936;51.006;13.764;2023-01-16T10:00:03;7;;;2;;
75342;SDS011;63936;51.006;13.764;2023-01-16T10:02:05;6;;;2;;
75342;SDS011;63936;51.006;13.764;2023-01-16T10:04:04;6;;;2;;
75342;SDS011;63936;51.006;13.764;2023-01-16T10:06:03;7;;;2;;
75342;SDS011;63936;51.006;13.764;2023-01-16T10:08:02;6;;;2;;
75342;SDS011;63936;51.006;13.764;2023-01-16T10:10:06;6;;;3;;
75342;SDS011;63936;51.006;13.764;2023-01-16T10:12:01;6;;;2;;
75342;SDS011;63936;51.006;13.764;2023-01-16T10:14:05;5;;;2;;
75342;SDS011;63936;51.006;13.764;2023-01-16T10:16:04;6;;;3;;
75342;SDS011;63936;51.006;13.764;2023-01-16T10:18:04;6;;;3;;
75342;SDS011;63936;51.006;13.764;2023-01-16T10:20:15;6;;;3;;
75342;SDS011;63936;51.006;13.764;2023-01-16T10:22:06;6;;;3;;
75342;SDS011;63936;51.006;13.764;2023-01-16T10:24:02;6;;;3;;
75342;SDS011;63936;51.006;13.764;2023-01-16T10:26:03;6;;;3;;
75342;SDS011;63936;51.006;13.764;2023-01-16T10:28:04;6;;;3;;
75342;SDS011;63936;51.006;13.764;2023-01-16T10:30:03;7;;;3;;
75342;SDS011;63936;51.006;13.764;2023-01-16T10:32:03;6;;;3;;
75342;SDS011;63936;51.006;13.764;2023-01-16T10:34:03;6;;;3;;
75342;SDS011;63936;51.006;13.764;2023-01-16T10:36:02;5;;;3;;
75342;SDS011;63936;51.006;13.764;2023-01-16T10:38:05;7;;;3;;
75342;SDS011;63936;51.006;13.764;2023-01-16T10:40:10;6;;;3;;
75342;SDS011;63936;51.006;13.764;2023-01-16T10:42:08;5;;;3;;
75342;SDS011;63936;51.006;13.764;2023-01-16T10:44:02;6;;;3;;
75342;SDS011;63936;51.006;13.764;2023-01-16T10:46:04;6;;;3;;
75342;SDS011;63936;51.006;13.764;2023-01-16T10:48:02;5;;;3;;
75342;SDS011;63936;51.006;13.764;2023-01-16T10:50:02;6;;;4;;
75342;SDS011;63936;51.006;13.764;2023-01-16T10:52:02;6;;;4;;
75342;SDS011;63936;51.006;13.764;2023-01-16T10:54:02;5;;;3;;
75342;SDS011;63936;51.006;13.764;2023-01-16T10:56:02;5;;;4;;
75342;SDS011;63936;51.006;13.764;2023-01-16T10:58:02;6;;;4;;
75342;SDS011;63936;51.006;13.764;2023-01-16T11:00:04;6;;;4;;
75342;SDS011;63936;51.006;13.764;2023-01-16T11:02:03;6;;;4;;
75342;SDS011;63936;51.006;13.764;2023-01-16T11:04:01;8;;;5;;
75342;SDS011;63936;51.006;13.764;2023-01-16T11:06:05;7;;;6;;
75342;SDS011;63936;51.006;13.764;2023-01-16T11:08:04;7;;;6;;
75342;SDS011;63936;51.006;13.764;2023-01-16T11:10:02;8;;;6;;
75342;SDS011;63936;51.006;13.764;2023-01-16T11:12:02;9;;;6;;
75342;SDS011;63936;51.006;13.764;2023-01-16T11:14:03;8;;;7;;
75342;SDS011;63936;51.006;13.764;2023-01-16T11:16:02;8;;;7;;
75342;SDS011;63936;51.006;13.764;2023-01-16T11:18:02;9;;;8;;
75342;SDS011;63936;51.006;13.764;2023-01-16T11:20:02;9;;;8;;
75342;SDS011;63936;51.006;13.764;2023-01-16T11:22:01;10;;;9;;
75342;SDS011;63936;51.006;13.764;2023-01-16T11:24:03;9;;;9;;
75342;SDS011;63936;51.006;13.764;2023-01-16T11:26:01;11;;;10;;
75342;SDS011;63936;51.006;13.764;2023-01-16T11:28:02;10;;;9;;
75342;SDS011;63936;51.006;13.764;2023-01-16T11:30:02;11;;;10;;
75342;SDS011;63936;51.006;13.764;2023-01-16T11:32:03;11;;;10;;
75342;SDS011;63936;51.006;13.764;2023-01-16T11:34:02;11;;;10;;
75342;SDS011;63936;51.006;13.764;2023-01-16T11:36:02;12;;;11;;
75342;SDS011;63936;51.006;13.764;2023-01-16T11:38:01;12;;;11;;
75342;SDS011;63936;51.006;13.764;2023-01-16T11:40:02;11;;;10;;
75342;SDS011;63936;51.006;13.764;2023-01-16T11:42:03;11;;;10;;
75342;SDS011;63936;51.006;13.764;2023-01-16T11:44:04;13;;;11;;
75342;SDS011;63936;51.006;13.764;2023-01-16T11:46:04;13;;;11;;
75342;SDS011;63936;51.006;13.764;2023-01-16T11:48:02;14;;;12;;
75342;SDS011;63936;51.006;13.764;2023-01-16T11:50:02;13;;;12;;
75342;SDS011;63936;51.006;13.764;2023-01-16T11:52:01;12;;;11;;
75342;SDS011;63936;51.006;13.764;2023-01-16T11:54:01;11;;;10;;
75342;SDS011;63936;51.006;13.764;2023-01-16T11:56:07;12;;;11;;
75342;SDS011;63936;51.006;13.764;2023-01-16T11:58:02;12;;;11;;
75342;SDS011;63936;51.006;13.764;2023-01-16T12:00:05;12;;;11;;
75342;SDS011;63936;51.006;13.764;2023-01-16T12:02:05;11;;;10;;
75342;SDS011;63936;51.006;13.764;2023-01-16T12:04:04;12;;;11;;
75342;SDS011;63936;51.006;13.764;2023-01-16T12:06:05;11;;;10;;
75342;SDS011;63936;51.006;13.764;2023-01-16T12:08:04;12;;;11;;
75342;SDS011;63936;51.006;13.764;2023-01-16T12:10:01;12;;;11;;
75342;SDS011;63936;51.006;13.764;2023-01-16T12:12:06;11;;;10;;
75342;SDS011;63936;51.006;13.764;2023-01-16T12:14:02;11;;;10;;
75342;SDS011;63936;51.006;13.764;2023-01-16T12:16:06;11;;;10;;
75342;SDS011;63936;51.006;13.764;2023-01-16T12:18:05;12;;;10;;
75342;SDS011;63936;51.006;13.764;2023-01-16T12:20:04;11;;;10;;
75342;SDS011;63936;51.006;13.764;2023-01-16T12:22:02;11;;;10;;
75342;SDS011;63936;51.006;13.764;2023-01-16T12:24:06;9;;;8;;
75342;SDS011;63936;51.006;13.764;2023-01-16T12:26:05;10;;;9;;
75342;SDS011;63936;51.006;13.764;2023-01-16T12:28:04;9;;;8;;
75342;SDS011;63936;51.006;13.764;2023-01-16T12:30:03;9;;;8;;
75342;SDS011;63936;51.006;13.764;2023-01-16T12:32:05;10;;;10;;
75342;SDS011;63936;51.006;13.764;2023-01-16T12:34:07;13;;;10;;
75342;SDS011;63936;51.006;13.764;2023-01-16T12:36:02;10;;;9;;
75342;SDS011;63936;51.006;13.764;2023-01-16T12:38:04;10;;;9;;
75342;SDS011;63936;51.006;13.764;2023-01-16T12:40:04;10;;;9;;
75342;SDS011;63936;51.006;13.764;2023-01-16T12:42:02;10;;;9;;
75342;SDS011;63936;51.006;13.764;2023-01-16T12:44:05;9;;;8;;
75342;SDS011;63936;51.006;13.764;2023-01-16T12:46:01;9;;;8;;
75342;SDS011;63936;51.006;13.764;2023-01-16T12:48:05;9;;;8;;
75342;SDS011;63936;51.006;13.764;2023-01-16T12:50:03;9;;;8;;
75342;SDS011;63936;51.006;13.764;2023-01-16T12:52:05;9;;;4;;
75342;SDS011;63936;51.006;13.764;2023-01-16T12:54:05;8;;;4;;
75342;SDS011;63936;51.006;13.764;2023-01-16T12:56:04;6;;;2;;
75342;SDS011;63936;51.006;13.764;2023-01-16T12:58:05;6;;;2;;